Airfield :
LOGIN :

Register | Disclaimer

   EN    FR    IT 

 










Legend :    VFR   Marginal VFR   IFR   Intensive IFR   Very Intensive IFR
Visi :
Ceiling :
>= 8 km
>= 3000ft
5 to 8 km
1000 to 3000 ft
1500m to 5 km
500 to 1000 ft
800 to 1500m
200 to 500 ft
< 800m
< 200 ft
Symbols :   Thunderstorms  Fog  Heavy snow  Heavy precipitations  Wind > 20 kt
SIGMETs :     Misc.  Thunderstorms  Icing  Turbulence  Mountain Waves  Volcanic Ashes







- Airport Elevation : 20 ft


EBFN - Koksijde

CURRENT METAR :
  • 160025Z AUTO 20007KT 9999 NCD 15/13 Q1017 BLU

EXPIRED METARs :
  • 152355Z AUTO 20007KT 9999 NCD 15/13 Q1017 BLU
  • 152325Z AUTO 19007KT 9999 NCD 15/13 Q1017 BLU
  • 152255Z AUTO 19007KT 9999 FEW021/// 15/13 Q1018 BLU
  • 152233Z AUTO 20005KT 9999 SCT021/// SCT026/// 15/13 Q1018 WHT
  • 152155Z AUTO 21007KT 9999 NCD 16/13 Q1018 BLU

TAF TAF EBFN
Valid from the 15 at 19:00 until the 16 at 07:00 UTC


151541Z 1519/1607 21010KT 9999 FEW020
TEMPO 1603/1607 4000 SCT012
BECMG 1605/1607 BKN020
No reported NOTAMs for that airfield.



MET'MAP, your aeronautical weather chart ! - Copyright ORBIFLY December 2007 - Disclaimer

ORBIFLY MET'MAP TEAM :

Programming & Development : Alexandra Zaïnal
Concept & Development : Baudouin d'Aumeries
Co-Development & Prog : Marc-Olivier Méhu
Technical & hardware support : Manuel Goepfert

Contact : metmap@orbifly.com




SOURCES & CREDITS :

   NOAA